BAW776 EGLL-ESSA
Flight info
| Callsign | BAW776 |
|---|---|
| Flight time | N/A |
| Altitude | 35000 |
| Route | BPK7G BPK Q295 SOMVA DCT MAVAS DCT ANDIK N873 JUIST DCT DOSUR DCT MIKNA N851 PELUP Z226 NILUG NILUG3S |
| Aircraft | A319/M-SDE3FGHIRWY/LB1 |
Departure
| Time | 2026-05-03 20:36 |
|---|---|
| Airport | London Heathrow Airport (EGLL) |
Arrival
| Time | N/A |
|---|---|
| Airport | Stockholm-Arlanda Airport (ESSA) |
| Time | Latitude | Longitude | Altitude | Speed | Heading |
|---|---|---|---|---|---|
| 2026-05-03 20:15 | 51.47086 | -0.48592 | 87 ft | 0 kts | 269° |
| 2026-05-03 20:24 | 51.47086 | -0.48591 | 87 ft | 1 kts | 269° |
| 2026-05-03 20:24 | 51.47087 | -0.48553 | 87 ft | 3 kts | 269° |
| 2026-05-03 20:24 | 51.47087 | -0.48518 | 87 ft | 4 kts | 258° |
| 2026-05-03 20:25 | 51.47097 | -0.48481 | 88 ft | 4 kts | 209° |
| 2026-05-03 20:25 | 51.47115 | -0.48474 | 90 ft | 0 kts | 179° |
| 2026-05-03 20:28 | 51.47114 | -0.48474 | 87 ft | 0 kts | 179° |
| 2026-05-03 20:29 | 51.47087 | -0.48474 | 87 ft | 8 kts | 179° |
| 2026-05-03 20:29 | 51.47023 | -0.48473 | 87 ft | 11 kts | 179° |
| 2026-05-03 20:29 | 51.46939 | -0.48472 | 87 ft | 13 kts | 179° |
| 2026-05-03 20:29 | 51.46845 | -0.48471 | 87 ft | 13 kts | 180° |
| 2026-05-03 20:30 | 51.46744 | -0.48470 | 87 ft | 16 kts | 180° |
| 2026-05-03 20:30 | 51.46672 | -0.48453 | 89 ft | 16 kts | 147° |
| 2026-05-03 20:30 | 51.46652 | -0.48275 | 87 ft | 18 kts | 89° |
| 2026-05-03 20:30 | 51.46653 | -0.48048 | 87 ft | 22 kts | 90° |
| 2026-05-03 20:31 | 51.46654 | -0.47790 | 87 ft | 24 kts | 90° |
| 2026-05-03 20:31 | 51.46655 | -0.47506 | 87 ft | 27 kts | 89° |
| 2026-05-03 20:31 | 51.46655 | -0.47215 | 87 ft | 17 kts | 90° |
| 2026-05-03 20:31 | 51.46657 | -0.47014 | 87 ft | 20 kts | 89° |
| 2026-05-03 20:32 | 51.46657 | -0.46774 | 88 ft | 23 kts | 89° |
| 2026-05-03 20:32 | 51.46658 | -0.46490 | 89 ft | 27 kts | 90° |
| 2026-05-03 20:32 | 51.46659 | -0.46162 | 87 ft | 32 kts | 90° |
| 2026-05-03 20:32 | 51.46661 | -0.45785 | 87 ft | 37 kts | 89° |
| 2026-05-03 20:33 | 51.46661 | -0.45390 | 87 ft | 32 kts | 90° |
| 2026-05-03 20:33 | 51.46663 | -0.45096 | 87 ft | 27 kts | 89° |
| 2026-05-03 20:33 | 51.46664 | -0.44772 | 87 ft | 31 kts | 89° |
| 2026-05-03 20:33 | 51.46665 | -0.44452 | 87 ft | 30 kts | 90° |
| 2026-05-03 20:34 | 51.46665 | -0.44219 | 87 ft | 0 kts | 90° |
| 2026-05-03 20:34 | 51.46665 | -0.44218 | 87 ft | 1 kts | 90° |
| 2026-05-03 20:35 | 51.46665 | -0.44166 | 87 ft | 9 kts | 90° |
| 2026-05-03 20:35 | 51.46632 | -0.44052 | 87 ft | 14 kts | 162° |
| 2026-05-03 20:35 | 51.46521 | -0.44058 | 86 ft | 17 kts | 181° |
| 2026-05-03 20:35 | 51.46491 | -0.44196 | 86 ft | 16 kts | 268° |
| 2026-05-03 20:36 | 51.46488 | -0.44464 | 88 ft | 43 kts | 269° |
| 2026-05-03 20:36 | 51.46487 | -0.45318 | 90 ft | 108 kts | 270° |
| 2026-05-03 20:36 | 51.46475 | -0.46812 | 96 ft | 160 kts | 268° |
| 2026-05-03 20:36 | 51.46454 | -0.48607 | 698 ft | 156 kts | 268° |
| 2026-05-03 20:37 | 51.46475 | -0.50350 | 1315 ft | 158 kts | 279° |
| 2026-05-03 20:37 | 51.46876 | -0.52075 | 1663 ft | 176 kts | 297° |
| 2026-05-03 20:37 | 51.47482 | -0.53901 | 2031 ft | 192 kts | 297° |
| 2026-05-03 20:37 | 51.48148 | -0.55905 | 2323 ft | 216 kts | 298° |